Time;durP1;ratioP1;P1;durP2;ratioP2;P2;SDS_P1;SDS_P2;PMS_P1;PMS_P2;Temp;Humidity;BMP_temperature;BMP_pressure;BME280_temperature;BME280_humidity;BME280_pressure;Samples;Min_cycle;Max_cycle;Signal;HPM_P1;HPM_P2
2022/11/11 00:01:12;;;;;;;16.15;11.75;;;11.40;99.90;;;;;;5121683;27;20058;-79
2022/11/11 00:03:38;;;;;;;17.15;10.55;;;11.40;99.90;;;;;;5112402;27;20039;-80
2022/11/11 00:06:08;;;;;;;14.70;10.88;;;11.40;99.90;;;;;;5105912;27;20044;-80
2022/11/11 00:08:33;;;;;;;17.02;10.80;;;11.40;99.90;;;;;;5130241;27;20039;-80
2022/11/11 00:11:07;;;;;;;17.02;10.63;;;11.50;99.90;;;;;;5109058;27;20454;-80
2022/11/11 00:13:34;;;;;;;16.15;10.85;;;11.50;99.90;;;;;;5140394;27;20084;-80
2022/11/11 00:16:12;;;;;;;18.75;11.38;;;11.50;99.90;;;;;;5112341;27;20047;-82
2022/11/11 00:26:46;;;;;;;16.20;11.43;;;11.60;99.90;;;;;;5129010;27;20071;-80
2022/11/11 00:29:12;;;;;;;15.82;10.68;;;11.60;99.90;;;;;;5116968;27;20051;-81
2022/11/11 00:32:21;;;;;;;16.27;11.57;;;11.60;99.90;;;;;;5105213;27;20438;-80
2022/11/11 00:34:24;;;;;;;13.70;10.85;;;11.60;99.90;;;;;;5112532;27;20047;-75
2022/11/11 00:36:50;;;;;;;16.08;12.25;;;11.60;99.90;;;;;;5107777;27;20108;-81
2022/11/11 00:39:16;;;;;;;18.70;11.50;;;11.60;99.90;;;;;;5113284;27;20035;-81
2022/11/11 00:41:42;;;;;;;14.85;11.55;;;11.50;99.90;;;;;;5156244;27;20063;-81
2022/11/11 00:44:07;;;;;;;19.60;11.45;;;11.60;99.90;;;;;;5111661;27;20050;-81
2022/11/11 00:52:02;;;;;;;15.15;11.48;;;11.60;99.90;;;;;;5124229;27;20039;-75
2022/11/11 00:54:28;;;;;;;16.67;12.18;;;11.60;99.90;;;;;;5125397;27;20508;-75
2022/11/11 00:56:54;;;;;;;17.77;12.00;;;11.60;99.90;;;;;;5104024;27;20043;-76
2022/11/11 00:59:20;;;;;;;15.65;12.20;;;11.60;99.90;;;;;;5103743;27;20043;-75
2022/11/11 01:01:45;;;;;;;17.48;11.70;;;11.60;99.90;;;;;;5104692;27;20043;-76
2022/11/11 01:04:11;;;;;;;18.17;12.13;;;11.60;99.90;;;;;;5107429;27;20075;-76
2022/11/11 01:06:37;;;;;;;17.08;12.27;;;11.60;99.90;;;;;;5094775;27;20074;-82
2022/11/11 01:09:07;;;;;;;17.83;12.10;;;11.50;99.90;;;;;;5089014;27;20051;-82
2022/11/11 01:11:33;;;;;;;15.80;11.93;;;11.50;99.90;;;;;;5100715;27;20046;-81
2022/11/11 01:14:01;;;;;;;16.50;12.73;;;11.50;99.90;;;;;;5091762;27;20043;-81
2022/11/11 01:16:27;;;;;;;14.00;12.50;;;11.50;99.90;;;;;;5109978;27;20054;-81
2022/11/11 01:18:54;;;;;;;18.27;13.52;;;11.40;99.90;;;;;;5119597;27;20051;-80
2022/11/11 01:21:22;;;;;;;16.40;12.98;;;11.40;99.90;;;;;;5158817;27;20043;-81
2022/11/11 01:23:50;;;;;;;19.83;12.85;;;11.40;99.90;;;;;;5125299;27;20424;-80
2022/11/11 01:26:26;;;;;;;20.55;13.20;;;11.40;99.90;;;;;;5093175;27;20050;-80
2022/11/11 01:28:54;;;;;;;18.05;13.82;;;11.30;99.90;;;;;;5107573;27;20122;-80
2022/11/11 01:31:22;;;;;;;17.88;13.15;;;11.30;99.90;;;;;;5105584;27;20027;-81
2022/11/11 01:33:48;;;;;;;18.63;14.65;;;11.20;99.90;;;;;;5152365;27;20049;-83
2022/11/11 01:36:16;;;;;;;16.42;13.70;;;11.20;99.90;;;;;;5124567;27;20043;-80
2022/11/11 01:38:42;;;;;;;17.17;14.40;;;11.20;99.90;;;;;;5100404;27;20132;-80
2022/11/11 01:44:18;;;;;;;18.00;14.77;;;11.10;99.90;;;;;;5124522;27;20047;-80
2022/11/11 01:47:02;;;;;;;21.27;16.00;;;11.10;99.90;;;;;;5108231;27;20051;-83
2022/11/11 01:49:34;;;;;;;18.95;16.55;;;11.00;99.90;;;;;;5121164;27;20051;-81
2022/11/11 01:52:09;;;;;;;21.35;16.77;;;11.00;99.90;;;;;;5116222;27;20075;-80
2022/11/11 01:55:02;;;;;;;20.23;17.15;;;11.00;99.90;;;;;;5129182;27;20031;-81
2022/11/11 01:57:44;;;;;;;20.23;17.00;;;11.00;99.90;;;;;;5120264;27;20122;-80
2022/11/11 02:00:13;;;;;;;18.30;16.27;;;11.00;99.90;;;;;;5106459;27;20421;-81
2022/11/11 02:02:47;;;;;;;19.97;17.90;;;10.90;99.90;;;;;;5152488;27;20722;-82
2022/11/11 02:08:04;;;;;;;22.83;19.23;;;10.80;99.90;;;;;;5121701;27;20047;-80
2022/11/11 02:10:32;;;;;;;25.50;19.95;;;10.80;99.90;;;;;;5098703;27;20051;-80
2022/11/11 02:15:53;;;;;;;22.13;19.60;;;10.70;99.90;;;;;;5098812;27;20047;-80
2022/11/11 02:18:19;;;;;;;24.15;20.17;;;10.70;99.90;;;;;;5104589;27;20124;-80
2022/11/11 02:20:45;;;;;;;26.85;20.73;;;10.70;99.90;;;;;;5110164;27;20050;-80
2022/11/11 02:23:11;;;;;;;29.60;21.83;;;10.60;99.90;;;;;;5104583;27;20124;-80
2022/11/11 02:25:41;;;;;;;27.33;21.20;;;10.60;99.90;;;;;;5117948;27;20133;-80
2022/11/11 02:28:07;;;;;;;22.88;20.45;;;10.60;99.90;;;;;;5124215;27;20054;-80
2022/11/11 02:30:33;;;;;;;24.92;22.27;;;10.60;99.90;;;;;;5086659;27;20111;-80
2022/11/11 02:32:59;;;;;;;27.35;22.83;;;10.60;99.90;;;;;;5118151;27;20130;-81
2022/11/11 02:35:41;;;;;;;25.98;22.80;;;10.60;99.90;;;;;;5113242;27;20126;-81
2022/11/11 02:38:11;;;;;;;28.25;23.70;;;10.60;99.90;;;;;;5105497;27;20126;-80
2022/11/11 02:41:55;;;;;;;25.35;22.73;;;10.60;99.90;;;;;;5088224;27;20055;-80
2022/11/11 02:43:32;;;;;;;28.80;24.20;;;10.60;99.90;;;;;;5117907;27;20436;-81
2022/11/11 02:46:02;;;;;;;;;;;10.60;99.90;;;;;;5127054;27;20067;-81
2022/11/11 02:48:29;;;;;;;28.13;25.20;;;10.60;99.90;;;;;;5117858;27;20370;-80
2022/11/11 02:50:55;;;;;;;28.20;25.17;;;10.60;99.90;;;;;;5108705;27;20126;-81
2022/11/11 02:53:21;;;;;;;32.80;26.98;;;10.60;99.90;;;;;;5088088;27;20509;-80
2022/11/11 02:55:47;;;;;;;30.67;27.50;;;10.60;99.90;;;;;;5154272;27;20050;-80
2022/11/11 02:58:14;;;;;;;31.20;27.00;;;10.60;99.90;;;;;;5153745;27;20047;-81
2022/11/11 03:00:41;;;;;;;29.90;26.65;;;10.70;99.90;;;;;;5107379;27;20043;-80
2022/11/11 03:03:08;;;;;;;31.48;27.88;;;10.70;99.90;;;;;;5092582;27;20074;-80
2022/11/11 03:05:34;;;;;;;30.63;27.23;;;10.70;99.90;;;;;;5089802;28;20055;-80
2022/11/11 03:07:59;;;;;;;29.65;26.60;;;10.70;99.90;;;;;;5114179;27;20559;-80
2022/11/11 03:10:25;;;;;;;31.40;28.25;;;10.70;99.90;;;;;;5126566;27;20081;-80
2022/11/11 03:12:51;;;;;;;31.45;28.10;;;10.70;99.90;;;;;;5092066;27;20051;-81
2022/11/11 03:15:17;;;;;;;31.13;27.92;;;10.70;99.90;;;;;;5116336;27;20178;-80
2022/11/11 03:17:42;;;;;;;32.65;29.35;;;10.70;99.90;;;;;;5105250;27;20051;-80
2022/11/11 03:23:15;;;;;;;32.60;29.30;;;10.70;99.90;;;;;;5106690;27;20043;-80
2022/11/11 03:25:42;;;;;;;31.73;28.42;;;10.70;99.90;;;;;;5106716;27;20054;-80
2022/11/11 03:28:08;;;;;;;32.38;28.88;;;10.70;99.90;;;;;;5113803;27;20401;-80
2022/11/11 03:30:34;;;;;;;33.67;29.63;;;10.70;99.90;;;;;;5123679;27;20054;-80
2022/11/11 03:33:00;;;;;;;34.38;30.73;;;10.60;99.90;;;;;;5116607;27;20073;-80
2022/11/11 03:35:27;;;;;;;33.30;29.85;;;10.70;99.90;;;;;;5102997;27;21380;-81
2022/11/11 03:40:37;;;;;;;33.05;29.65;;;10.60;99.90;;;;;;5122784;27;20050;-80
2022/11/11 03:43:03;;;;;;;36.05;30.30;;;10.70;99.90;;;;;;5116455;27;20516;-80
2022/11/11 03:45:29;;;;;;;33.92;29.27;;;10.60;99.90;;;;;;5119277;27;20107;-80
2022/11/11 03:48:01;;;;;;;35.17;31.27;;;10.60;99.90;;;;;;5126852;27;20505;-80
2022/11/11 03:50:27;;;;;;;34.28;30.70;;;10.60;99.90;;;;;;5086369;27;20059;-80
2022/11/11 03:52:53;;;;;;;36.88;32.25;;;10.60;99.90;;;;;;5090143;27;20489;-80
2022/11/11 03:55:19;;;;;;;34.75;31.23;;;10.60;99.90;;;;;;5128457;27;20054;-80
2022/11/11 03:57:46;;;;;;;34.47;31.02;;;10.60;99.90;;;;;;5079771;27;20479;-80
2022/11/11 04:00:14;;;;;;;34.63;31.05;;;10.60;99.90;;;;;;5143836;27;20046;-81
2022/11/11 04:11:21;;;;;;;34.38;30.85;;;10.60;99.90;;;;;;5118420;27;20115;-75
2022/11/11 04:16:32;;;;;;;36.83;32.85;;;10.60;99.90;;;;;;5128056;27;20541;-75
2022/11/11 04:21:45;;;;;;;36.92;33.13;;;10.70;99.90;;;;;;5127936;27;20063;-81
2022/11/11 04:27:06;;;;;;;36.13;32.45;;;10.70;99.90;;;;;;5123442;27;20039;-81
2022/11/11 04:29:32;;;;;;;37.35;33.38;;;10.70;99.90;;;;;;5125617;27;20030;-80
2022/11/11 04:34:54;;;;;;;36.92;33.15;;;10.70;99.90;;;;;;5122476;27;20103;-81
2022/11/11 04:37:22;;;;;;;38.50;34.50;;;10.70;99.90;;;;;;5138329;27;20047;-81
2022/11/11 04:42:33;;;;;;;39.80;34.58;;;10.70;99.90;;;;;;5123947;27;20130;-80
2022/11/11 04:47:55;;;;;;;40.00;35.85;;;10.70;99.90;;;;;;5131006;27;20047;-81
2022/11/11 04:50:21;;;;;;;38.00;34.20;;;10.80;99.90;;;;;;5127718;27;20042;-80
2022/11/11 04:52:56;;;;;;;40.13;35.92;;;10.80;99.90;;;;;;5113099;27;20831;-80
2022/11/11 04:58:07;;;;;;;38.97;34.72;;;10.80;99.90;;;;;;5108332;27;20039;-76
2022/11/11 05:00:33;;;;;;;38.97;35.05;;;10.80;99.90;;;;;;5132100;27;20418;-75
2022/11/11 05:03:14;;;;;;;38.75;34.55;;;10.80;99.90;;;;;;5148509;27;20553;-75
2022/11/11 05:08:56;;;;;;;39.85;34.60;;;10.90;99.90;;;;;;5117504;27;20039;-75
2022/11/11 05:11:33;;;;;;;38.40;34.40;;;10.90;99.90;;;;;;5134096;27;20176;-81
2022/11/11 05:22:37;;;;;;;40.03;35.08;;;10.90;99.90;;;;;;5125767;27;19962;-81
2022/11/11 05:27:48;;;;;;;39.15;34.90;;;10.90;99.90;;;;;;5133974;27;20061;-82
2022/11/11 05:30:15;;;;;;;40.50;36.25;;;10.90;99.90;;;;;;5123968;27;20129;-80
2022/11/11 05:32:41;;;;;;;39.22;34.95;;;10.90;99.90;;;;;;5126180;27;20046;-81
2022/11/11 05:35:08;;;;;;;41.47;35.67;;;11.00;99.90;;;;;;5106534;27;20041;-80
2022/11/11 05:37:34;;;;;;;37.15;33.35;;;11.00;99.90;;;;;;5157327;27;20066;-80
2022/11/11 05:40:00;;;;;;;37.72;33.78;;;11.00;99.90;;;;;;5127369;27;20039;-80
2022/11/11 05:42:26;;;;;;;39.08;35.10;;;11.00;99.90;;;;;;5111407;27;20050;-81
2022/11/11 05:44:52;;;;;;;40.45;35.97;;;11.00;99.90;;;;;;5108758;27;20043;-80
2022/11/11 05:47:17;;;;;;;38.65;34.47;;;11.00;99.90;;;;;;5121375;27;20039;-81
2022/11/11 05:49:43;;;;;;;38.78;34.67;;;11.00;99.90;;;;;;5130277;27;20088;-80
2022/11/11 05:52:11;;;;;;;38.70;34.65;;;11.00;99.90;;;;;;5127802;27;20106;-82
2022/11/11 05:54:37;;;;;;;39.60;35.33;;;11.00;99.90;;;;;;5122137;27;20142;-81
2022/11/11 05:57:03;;;;;;;40.55;36.28;;;11.00;99.90;;;;;;5097259;27;20043;-80
2022/11/11 05:59:29;;;;;;;38.15;34.25;;;11.00;99.90;;;;;;5110095;27;20041;-82
2022/11/11 06:01:55;;;;;;;38.65;34.50;;;11.00;99.90;;;;;;5124044;27;20511;-80
2022/11/11 06:04:21;;;;;;;39.75;35.50;;;11.00;99.90;;;;;;5108646;27;20051;-81
2022/11/11 06:06:47;;;;;;;37.72;33.65;;;11.00;99.90;;;;;;5107747;27;20043;-80
2022/11/11 06:09:13;;;;;;;39.60;35.30;;;10.90;99.90;;;;;;5107114;27;20040;-82
2022/11/11 06:11:38;;;;;;;42.17;35.65;;;10.90;99.90;;;;;;5123808;27;20169;-80
2022/11/11 06:14:05;;;;;;;37.72;33.72;;;11.00;99.90;;;;;;5124139;27;20043;-81
2022/11/11 06:16:31;;;;;;;41.17;34.13;;;10.90;99.90;;;;;;5128209;27;20065;-80
2022/11/11 06:18:58;;;;;;;38.65;34.55;;;10.90;99.90;;;;;;5120860;27;20271;-82
2022/11/11 06:21:25;;;;;;;38.95;34.83;;;10.90;99.90;;;;;;5105919;27;20050;-80
2022/11/11 06:23:51;;;;;;;37.80;33.72;;;10.90;99.90;;;;;;5128999;27;20099;-81
2022/11/11 06:26:17;;;;;;;36.78;32.90;;;10.90;99.90;;;;;;5128750;27;20443;-81
2022/11/11 06:28:43;;;;;;;36.95;32.47;;;11.00;99.90;;;;;;5110684;27;20054;-82
2022/11/11 06:31:12;;;;;;;37.90;33.90;;;11.00;99.90;;;;;;5101227;27;20046;-81
2022/11/11 06:33:42;;;;;;;38.45;33.22;;;10.90;99.90;;;;;;5110353;27;20048;-81
2022/11/11 06:36:09;;;;;;;37.67;33.70;;;10.90;99.90;;;;;;5125858;27;20047;-80
2022/11/11 06:38:35;;;;;;;40.90;35.28;;;10.90;99.90;;;;;;5106160;27;20537;-80
2022/11/11 06:41:01;;;;;;;36.75;32.55;;;10.90;99.90;;;;;;5132164;27;20039;-80
2022/11/11 06:43:27;;;;;;;35.92;31.77;;;10.90;99.90;;;;;;5126114;27;20078;-80
2022/11/11 06:45:53;;;;;;;34.85;30.73;;;10.90;99.90;;;;;;5103070;27;20054;-80
2022/11/11 06:48:24;;;;;;;36.78;32.10;;;10.90;99.90;;;;;;5094113;27;20293;-80
2022/11/11 06:50:50;;;;;;;36.60;32.60;;;10.90;99.90;;;;;;5122733;27;20051;-81
2022/11/11 06:53:18;;;;;;;35.63;31.67;;;10.90;99.90;;;;;;5119534;27;20044;-75
2022/11/11 06:55:44;;;;;;;38.05;31.67;;;10.90;99.90;;;;;;5123012;27;20083;-75
2022/11/11 06:58:15;;;;;;;34.95;31.27;;;10.90;99.90;;;;;;5089222;27;20036;-81
2022/11/11 07:00:41;;;;;;;32.95;29.02;;;10.90;99.90;;;;;;5113990;27;20093;-80
2022/11/11 07:03:10;;;;;;;35.42;31.63;;;10.90;99.90;;;;;;5105681;27;20123;-74
2022/11/11 07:05:36;;;;;;;33.15;29.55;;;10.90;99.90;;;;;;5107546;27;20039;-73
2022/11/11 07:08:04;;;;;;;37.97;30.77;;;10.90;99.90;;;;;;5098092;27;20097;-73
2022/11/11 07:10:31;;;;;;;34.63;29.75;;;10.90;99.90;;;;;;5108209;27;20133;-73
2022/11/11 07:13:00;;;;;;;36.08;30.55;;;11.00;99.90;;;;;;5124262;27;20048;-73
2022/11/11 07:15:26;;;;;;;35.13;29.88;;;11.00;99.90;;;;;;5150767;27;20046;-73
2022/11/11 07:17:52;;;;;;;36.47;31.00;;;11.00;99.90;;;;;;5114652;27;20663;-73
2022/11/11 07:20:18;;;;;;;34.38;30.67;;;11.00;99.90;;;;;;5108255;27;20040;-74
2022/11/11 07:22:44;;;;;;;33.15;29.35;;;11.00;99.90;;;;;;5087015;27;20782;-73
2022/11/11 07:25:10;;;;;;;35.85;31.25;;;11.10;99.90;;;;;;5131651;27;20059;-74
2022/11/11 07:27:37;;;;;;;34.80;30.10;;;11.00;99.90;;;;;;5113920;27;20178;-73
2022/11/11 07:30:04;;;;;;;33.90;29.92;;;11.00;99.90;;;;;;5137186;27;20524;-73
2022/11/11 07:32:30;;;;;;;32.20;28.83;;;11.00;99.90;;;;;;5103419;27;20501;-73
2022/11/11 07:34:56;;;;;;;35.67;29.35;;;11.00;99.90;;;;;;5127031;27;20080;-73
2022/11/11 07:37:21;;;;;;;32.72;29.05;;;11.00;99.90;;;;;;5151129;27;20047;-73
2022/11/11 07:39:47;;;;;;;32.97;28.60;;;11.00;99.90;;;;;;5061156;27;20051;-73
2022/11/11 07:42:14;;;;;;;34.30;29.25;;;11.00;99.90;;;;;;5083523;27;20039;-73
2022/11/11 07:44:40;;;;;;;31.67;27.67;;;11.10;99.90;;;;;;5105746;27;20550;-73
2022/11/11 07:47:06;;;;;;;32.05;28.63;;;11.10;99.90;;;;;;5074428;27;20397;-75
2022/11/11 07:49:32;;;;;;;31.73;28.35;;;11.10;99.90;;;;;;5119092;27;20524;-75
2022/11/11 07:51:59;;;;;;;32.47;27.65;;;11.10;99.90;;;;;;5117371;27;20469;-75
2022/11/11 07:54:24;;;;;;;31.67;28.33;;;11.10;99.90;;;;;;5129368;27;20043;-75
2022/11/11 07:56:50;;;;;;;32.42;28.63;;;11.10;99.90;;;;;;5105022;27;20055;-76
2022/11/11 07:59:16;;;;;;;30.33;27.10;;;11.10;99.90;;;;;;5089415;27;20046;-75
2022/11/11 08:01:42;;;;;;;29.83;26.55;;;11.10;99.90;;;;;;5110791;27;20051;-76
2022/11/11 08:04:08;;;;;;;33.05;28.48;;;11.10;99.90;;;;;;5101460;27;20045;-77
2022/11/11 08:06:34;;;;;;;31.23;27.92;;;11.10;99.90;;;;;;5102650;27;20047;-76
2022/11/11 08:09:00;;;;;;;29.80;26.63;;;11.10;99.90;;;;;;5158501;27;20396;-75
2022/11/11 08:14:13;;;;;;;29.17;26.05;;;11.10;99.90;;;;;;5158119;27;20043;-84
2022/11/11 08:16:39;;;;;;;30.27;27.13;;;11.10;99.90;;;;;;5097762;27;20051;-84
2022/11/11 08:19:05;;;;;;;29.67;26.55;;;11.10;99.90;;;;;;5137922;27;20055;-84
2022/11/11 08:21:31;;;;;;;32.15;27.00;;;11.10;99.90;;;;;;5092391;27;20122;-85
2022/11/11 08:23:57;;;;;;;30.02;26.90;;;11.20;99.90;;;;;;5121809;27;20398;-84
2022/11/11 08:26:26;;;;;;;31.10;27.35;;;11.20;99.90;;;;;;5089249;27;20042;-84
2022/11/11 08:28:52;;;;;;;29.05;25.92;;;11.20;99.90;;;;;;5107758;27;20055;-84
2022/11/11 08:31:18;;;;;;;28.60;25.65;;;11.20;99.90;;;;;;5130538;27;20784;-84
2022/11/11 08:33:44;;;;;;;29.20;26.13;;;11.20;99.90;;;;;;5108788;27;20133;-83
2022/11/11 08:36:10;;;;;;;29.70;25.48;;;11.30;99.90;;;;;;5106619;27;20062;-83
2022/11/11 08:38:37;;;;;;;27.10;24.25;;;11.30;99.90;;;;;;5118689;27;20043;-85
2022/11/11 08:41:05;;;;;;;27.30;24.38;;;11.30;99.90;;;;;;5117512;27;20059;-82
2022/11/11 08:43:31;;;;;;;26.80;23.08;;;11.40;99.90;;;;;;5132202;27;20047;-82
2022/11/11 08:46:02;;;;;;;26.15;23.05;;;11.40;99.90;;;;;;5108147;27;20050;-82
2022/11/11 08:48:32;;;;;;;26.02;23.08;;;11.40;99.90;;;;;;5112361;27;20039;-82
2022/11/11 08:51:01;;;;;;;25.63;22.77;;;11.50;99.90;;;;;;5107717;27;20042;-82
2022/11/11 08:53:27;;;;;;;25.98;22.45;;;11.50;99.90;;;;;;5105404;27;20039;-83
2022/11/11 08:55:53;;;;;;;29.48;24.08;;;11.50;99.90;;;;;;5119532;27;20039;-83
2022/11/11 08:58:19;;;;;;;23.27;20.85;;;11.50;99.90;;;;;;5119391;27;20048;-82
2022/11/11 09:00:45;;;;;;;24.92;21.95;;;11.60;99.90;;;;;;5134280;27;20104;-83
2022/11/11 09:03:11;;;;;;;24.38;21.98;;;11.60;99.90;;;;;;5116297;27;20091;-82
2022/11/11 09:05:39;;;;;;;24.70;22.05;;;11.60;99.90;;;;;;5083362;27;20545;-82
2022/11/11 09:08:06;;;;;;;24.83;22.42;;;11.60;99.90;;;;;;5107513;27;20252;-82
2022/11/11 09:10:34;;;;;;;24.05;20.90;;;11.60;99.90;;;;;;5118126;27;20541;-82
2022/11/11 09:13:00;;;;;;;25.08;21.75;;;11.60;99.90;;;;;;5122035;27;20405;-82
2022/11/11 09:15:26;;;;;;;24.45;21.88;;;11.60;99.90;;;;;;5119609;27;20039;-82
2022/11/11 09:17:53;;;;;;;23.65;21.17;;;11.60;99.90;;;;;;5116441;27;20531;-82
2022/11/11 09:20:19;;;;;;;21.30;19.17;;;11.60;99.90;;;;;;5104727;27;20075;-82
2022/11/11 09:22:46;;;;;;;22.65;20.40;;;11.60;99.90;;;;;;5102310;27;20043;-83
2022/11/11 09:25:13;;;;;;;23.00;19.92;;;11.60;99.90;;;;;;5128427;27;20046;-82
2022/11/11 09:27:39;;;;;;;23.45;20.38;;;11.60;99.90;;;;;;5101899;27;20032;-82
2022/11/11 09:30:06;;;;;;;22.83;20.58;;;11.60;99.90;;;;;;5106568;27;20073;-83
2022/11/11 09:32:32;;;;;;;23.00;20.60;;;11.60;99.90;;;;;;5115366;27;20075;-82
2022/11/11 09:35:01;;;;;;;23.77;21.20;;;11.60;99.90;;;;;;5121284;27;20061;-84
2022/11/11 09:37:27;;;;;;;23.15;20.85;;;11.60;99.90;;;;;;5112822;27;20039;-83
2022/11/11 09:39:55;;;;;;;23.08;20.65;;;11.60;99.90;;;;;;5124546;27;20050;-83
2022/11/11 09:42:23;;;;;;;23.05;20.23;;;11.60;99.90;;;;;;5121509;27;20040;-74
2022/11/11 09:45:34;;;;;;;22.00;19.58;;;11.60;99.90;;;;;;5100223;27;20055;-74
2022/11/11 09:48:42;;;;;;;23.35;20.85;;;11.60;99.90;;;;;;5093063;27;20046;-74
2022/11/11 09:51:17;;;;;;;23.25;20.85;;;11.70;99.90;;;;;;5063232;28;20146;-75
2022/11/11 09:53:51;;;;;;;23.10;19.75;;;11.70;99.90;;;;;;5109457;27;20052;-75
2022/11/11 09:56:20;;;;;;;24.45;20.77;;;11.70;99.90;;;;;;5120433;27;20082;-76
2022/11/11 09:58:57;;;;;;;23.48;20.92;;;11.70;99.90;;;;;;5102716;27;20115;-85
2022/11/11 10:01:26;;;;;;;22.88;20.23;;;11.80;99.90;;;;;;5117196;27;20497;-84
2022/11/11 10:04:18;;;;;;;21.77;19.50;;;11.80;99.90;;;;;;5104843;27;20039;-84
2022/11/11 10:06:46;;;;;;;21.17;19.05;;;11.90;99.90;;;;;;5102719;27;20420;-85
2022/11/11 10:09:29;;;;;;;20.55;18.30;;;11.90;99.90;;;;;;5123859;27;20078;-84
2022/11/11 10:12:18;;;;;;;21.10;18.90;;;11.90;99.90;;;;;;5120733;27;20307;-84
2022/11/11 10:14:50;;;;;;;21.55;19.35;;;12.00;99.90;;;;;;5118690;27;20074;-84
2022/11/11 10:17:33;;;;;;;20.45;18.25;;;12.00;99.90;;;;;;5107168;27;20497;-85
2022/11/11 10:20:24;;;;;;;20.13;17.85;;;12.00;99.90;;;;;;5120981;27;20513;-84
2022/11/11 10:22:59;;;;;;;22.00;19.77;;;12.10;99.90;;;;;;5121957;27;20040;-85
2022/11/11 10:25:25;;;;;;;19.67;17.77;;;12.10;99.90;;;;;;5122938;27;20055;-84
2022/11/11 10:27:54;;;;;;;20.85;18.40;;;12.10;99.90;;;;;;5101278;27;20058;-84
2022/11/11 10:30:28;;;;;;;20.65;18.60;;;12.20;99.90;;;;;;5122728;27;20054;-85
2022/11/11 10:33:04;;;;;;;20.98;18.85;;;12.20;99.90;;;;;;5119759;27;20044;-84
2022/11/11 10:35:32;;;;;;;21.27;18.27;;;12.20;99.90;;;;;;5115458;27;20062;-84
2022/11/11 10:38:08;;;;;;;20.77;18.40;;;12.30;99.90;;;;;;5103869;27;20050;-86
2022/11/11 10:40:42;;;;;;;20.75;18.67;;;12.20;99.90;;;;;;5125672;27;20103;-84
2022/11/11 10:43:23;;;;;;;19.17;17.25;;;12.30;99.90;;;;;;5097479;27;20507;-84
2022/11/11 10:46:06;;;;;;;20.60;17.92;;;12.30;99.90;;;;;;5112378;27;20229;-85
2022/11/11 10:49:11;;;;;;;20.42;17.52;;;12.30;99.90;;;;;;5112538;27;20047;-84
2022/11/11 10:51:57;;;;;;;19.40;17.40;;;12.30;99.90;;;;;;5100005;27;20063;-84
2022/11/11 10:54:40;;;;;;;19.92;17.83;;;12.40;99.90;;;;;;5128034;27;20047;-87
2022/11/11 10:57:29;;;;;;;18.95;17.08;;;12.50;99.90;;;;;;5107132;27;20499;-84
2022/11/11 11:00:08;;;;;;;19.45;17.45;;;12.50;99.90;;;;;;5087761;27;20044;-84
2022/11/11 11:02:52;;;;;;;19.55;17.10;;;12.50;99.90;;;;;;5098338;27;20082;-84
2022/11/11 11:05:33;;;;;;;17.63;15.75;;;12.50;99.90;;;;;;5108868;27;20556;-84
2022/11/11 11:08:23;;;;;;;19.25;17.23;;;12.50;99.90;;;;;;5131829;27;20088;-84
2022/11/11 11:11:03;;;;;;;18.98;17.00;;;12.50;99.90;;;;;;5131030;27;20083;-85
2022/11/11 11:13:56;;;;;;;19.45;17.45;;;12.50;99.90;;;;;;5106977;27;20057;-85
2022/11/11 11:16:25;;;;;;;18.77;16.90;;;12.40;99.90;;;;;;5111844;27;20400;-84
2022/11/11 11:19:16;;;;;;;20.47;18.27;;;12.40;99.90;;;;;;5140226;27;20051;-84
2022/11/11 11:21:50;;;;;;;18.40;16.58;;;12.50;99.90;;;;;;5094786;28;20396;-84
2022/11/11 11:24:24;;;;;;;20.38;17.58;;;12.40;99.90;;;;;;5128922;27;20516;-84
2022/11/11 11:26:55;;;;;;;18.85;16.83;;;12.40;99.90;;;;;;5132366;27;20043;-84
2022/11/11 11:29:25;;;;;;;18.50;16.70;;;12.40;99.90;;;;;;5108298;27;20122;-84
2022/11/11 11:31:52;;;;;;;18.35;16.27;;;12.50;99.90;;;;;;5080337;27;20257;-84
2022/11/11 11:34:17;;;;;;;17.20;15.40;;;12.50;99.90;;;;;;5084127;28;20409;-84
2022/11/11 11:36:57;;;;;;;19.42;15.38;;;12.50;99.90;;;;;;5111131;27;20051;-85
2022/11/11 11:39:38;;;;;;;19.77;16.00;;;12.40;99.90;;;;;;5141914;27;20674;-83
2022/11/11 11:42:05;;;;;;;18.60;16.73;;;12.40;99.90;;;;;;5128188;27;20074;-82
2022/11/11 11:44:33;;;;;;;18.15;16.10;;;12.40;99.90;;;;;;5116653;27;20039;-83
2022/11/11 11:47:05;;;;;;;19.75;16.10;;;12.40;99.90;;;;;;5098442;28;20047;-85
2022/11/11 11:49:40;;;;;;;18.73;16.83;;;12.40;99.90;;;;;;5150328;27;20055;-86
2022/11/11 11:52:30;;;;;;;18.00;16.27;;;12.40;99.90;;;;;;5104193;27;20401;-84
2022/11/11 11:55:15;;;;;;;18.70;16.80;;;12.40;99.90;;;;;;5132134;27;20443;-84
2022/11/11 11:57:52;;;;;;;19.15;17.13;;;12.40;99.90;;;;;;5108964;27;20088;-83
2022/11/11 12:00:21;;;;;;;17.48;15.68;;;12.40;99.90;;;;;;5112374;27;20106;-84
2022/11/11 12:03:02;;;;;;;17.67;15.88;;;12.40;99.90;;;;;;5097488;28;20123;-85
2022/11/11 12:05:31;;;;;;;17.88;15.63;;;12.40;99.90;;;;;;5102758;28;20051;-84
2022/11/11 12:08:00;;;;;;;18.65;16.67;;;12.50;99.90;;;;;;5114488;27;20055;-84
2022/11/11 12:10:50;;;;;;;18.17;15.95;;;12.50;99.90;;;;;;5112780;27;20565;-84
2022/11/11 12:13:16;;;;;;;18.80;16.80;;;12.50;99.90;;;;;;5146900;27;20047;-84
2022/11/11 12:16:07;;;;;;;18.23;16.13;;;12.50;99.90;;;;;;5105086;28;20047;-84
2022/11/11 12:19:01;;;;;;;18.73;16.92;;;12.40;99.90;;;;;;5142612;27;20047;-83
2022/11/11 12:21:51;;;;;;;18.42;16.63;;;12.50;99.90;;;;;;5108531;27;20176;-84
2022/11/11 12:24:49;;;;;;;18.20;16.30;;;12.40;99.90;;;;;;5117363;27;20039;-85
2022/11/11 12:27:21;;;;;;;18.38;16.60;;;12.50;99.90;;;;;;5105553;27;20513;-85
2022/11/11 12:30:18;;;;;;;18.08;15.75;;;12.50;99.90;;;;;;5103027;28;20054;-84
2022/11/11 12:33:08;;;;;;;18.70;16.80;;;12.50;99.90;;;;;;5111023;27;20530;-84
2022/11/11 12:36:12;;;;;;;18.90;16.42;;;12.50;99.90;;;;;;5087267;27;20048;-84
2022/11/11 12:39:01;;;;;;;17.23;15.63;;;12.50;99.90;;;;;;5096295;27;20039;-83
2022/11/11 12:41:33;;;;;;;17.95;16.15;;;12.50;99.90;;;;;;5126219;27;20051;-84
2022/11/11 12:44:04;;;;;;;17.88;15.98;;;12.50;99.90;;;;;;5090816;28;20083;-83
2022/11/11 12:47:08;;;;;;;18.30;16.40;;;12.50;99.90;;;;;;5119648;27;20082;-83
2022/11/11 12:50:05;;;;;;;16.95;15.27;;;12.50;99.90;;;;;;5105400;27;20100;-84
2022/11/11 12:53:04;;;;;;;17.85;16.13;;;12.50;99.90;;;;;;5113133;27;20168;-84
2022/11/11 12:56:05;;;;;;;17.85;15.85;;;12.50;99.90;;;;;;5085734;27;20625;-83
2022/11/11 12:58:47;;;;;;;18.00;16.20;;;12.50;99.90;;;;;;5115547;27;20401;-84
2022/11/11 13:01:19;;;;;;;17.50;15.70;;;12.50;99.90;;;;;;5145970;27;20043;-83
2022/11/11 13:04:19;;;;;;;18.20;16.50;;;12.50;99.90;;;;;;5151456;27;20508;-84
2022/11/11 13:06:55;;;;;;;18.48;16.65;;;12.40;99.90;;;;;;5143652;27;20047;-83
2022/11/11 13:09:46;;;;;;;18.17;16.17;;;12.40;99.90;;;;;;5115326;27;20054;-83
2022/11/11 13:12:37;;;;;;;18.23;16.45;;;12.40;99.90;;;;;;5101247;27;20062;-84
2022/11/11 13:15:03;;;;;;;;;;;12.40;99.90;;;;;;5117016;27;20058;-82
2022/11/11 13:17:30;;;;;;;19.02;17.13;;;12.30;99.90;;;;;;5112868;27;19919;-83
2022/11/11 13:20:11;;;;;;;17.58;15.80;;;12.30;99.90;;;;;;5098833;27;20047;-84
2022/11/11 13:22:37;;;;;;;18.10;16.25;;;12.30;99.90;;;;;;5154861;27;20099;-86
2022/11/11 13:25:05;;;;;;;18.75;16.95;;;12.20;99.90;;;;;;5098987;28;20047;-83
2022/11/11 13:27:41;;;;;;;18.48;16.55;;;12.30;99.90;;;;;;5118022;27;20047;-85
2022/11/11 13:30:31;;;;;;;19.98;17.88;;;12.30;99.90;;;;;;5106365;27;20039;-83
2022/11/11 13:33:24;;;;;;;18.77;16.92;;;12.30;99.90;;;;;;5101507;27;20051;-84
2022/11/11 13:35:56;;;;;;;20.23;18.15;;;12.30;99.90;;;;;;5093756;27;20789;-84
2022/11/11 13:38:34;;;;;;;19.58;16.98;;;12.30;99.90;;;;;;5111650;27;20046;-84
2022/11/11 13:41:04;;;;;;;19.10;17.20;;;12.40;99.90;;;;;;5124193;27;20103;-83
2022/11/11 13:43:39;;;;;;;18.98;17.08;;;12.40;99.90;;;;;;5114539;27;20040;-83
2022/11/11 13:46:06;;;;;;;18.00;16.23;;;12.40;99.90;;;;;;5096751;27;20526;-82
2022/11/11 13:48:42;;;;;;;18.98;17.08;;;12.40;99.90;;;;;;5144290;27;20047;-83
2022/11/11 13:51:25;;;;;;;18.88;16.80;;;12.40;99.90;;;;;;5119127;27;20044;-82
2022/11/11 13:53:52;;;;;;;19.08;17.17;;;12.40;99.90;;;;;;5151729;27;20092;-83
2022/11/11 13:56:28;;;;;;;18.55;16.67;;;12.40;99.90;;;;;;5091195;27;20529;-81
2022/11/11 13:58:55;;;;;;;19.05;15.98;;;12.50;99.90;;;;;;5113429;27;20047;-82
2022/11/11 14:01:22;;;;;;;19.30;17.33;;;12.50;99.90;;;;;;5103114;27;20061;-82
2022/11/11 14:03:51;;;;;;;17.77;15.88;;;12.50;99.90;;;;;;5113462;27;20581;-82